Аэропорт: Толмачёво. Новосибирск

ICAO: UNNT

METAR:
2021-10-23 01:30:00
UNNT 230130Z 19006MPS 9999 OVC030 03/M03 Q1020 WS R25 R25/090070 R16/090070 NOSIG RMK QFE755/1006
METAR:
2021-10-22 23:00:00
TAF UNNT 222300Z 2300/2324 19007G15MPS 8000 BKN040CB BECMG 2302/2303 21012G22MPS BKN020CB TEMPO 2303/2324 -SHRA BKN016CB BECMG 2316/2318 22007G15MPS